createdAt,value
2022-12-04T00:00:15.277Z,75.20
2022-12-04T00:02:46.888Z,66.90
2022-12-04T00:05:18.601Z,67.97
2022-12-04T00:07:50.897Z,68.75
2022-12-04T00:10:23.645Z,67.57
2022-12-04T00:12:55.330Z,77.47
2022-12-04T00:15:27.458Z,70.50
2022-12-04T00:18:00.190Z,67.68
2022-12-04T00:20:31.813Z,65.53
2022-12-04T00:23:03.599Z,71.13
2022-12-04T00:25:40.714Z,69.07
2022-12-04T00:28:12.859Z,72.20
2022-12-04T00:30:47.601Z,63.17
2022-12-04T00:33:20.496Z,66.10
2022-12-04T00:36:04.037Z,64.72
2022-12-04T00:38:37.736Z,63.33
2022-12-04T00:41:14.508Z,71.68
2022-12-04T00:43:47.521Z,70.05
2022-12-04T00:46:21.750Z,70.95
2022-12-04T00:48:59.199Z,66.10
2022-12-04T00:51:34.212Z,63.55
2022-12-04T00:54:05.876Z,69.72
2022-12-04T00:56:37.507Z,63.92
2022-12-04T00:59:10.876Z,67.55
2022-12-04T01:01:42.607Z,70.68
2022-12-04T01:04:15.326Z,61.50
2022-12-04T01:06:47.284Z,61.80
2022-12-04T01:09:19.998Z,71.07
2022-12-04T01:11:53.683Z,65.05
2022-12-04T01:14:25.585Z,65.97
2022-12-04T01:16:57.304Z,61.00
2022-12-04T01:19:28.997Z,65.30
2022-12-04T01:22:04.073Z,58.25
2022-12-04T01:24:35.708Z,61.60
2022-12-04T01:27:07.506Z,62.08
2022-12-04T01:29:39.118Z,58.08
2022-12-04T01:32:10.777Z,60.67
2022-12-04T01:34:42.458Z,59.10
2022-12-04T01:37:14.058Z,61.70
2022-12-04T01:39:45.672Z,64.80
2022-12-04T01:42:17.316Z,58.15
2022-12-04T01:45:30.598Z,62.50
2022-12-04T01:48:30.927Z,59.45
2022-12-04T01:51:21.079Z,61.42
2022-12-04T01:53:56.232Z,63.05
2022-12-04T01:56:43.694Z,65.00
2022-12-04T01:59:19.444Z,55.95
2022-12-04T02:02:02.738Z,57.33
2022-12-04T02:04:35.499Z,61.60
2022-12-04T02:07:07.108Z,60.33
2022-12-04T02:09:40.867Z,59.60
2022-12-04T02:12:32.708Z,57.22
2022-12-04T02:15:25.806Z,60.85
2022-12-04T02:17:57.660Z,63.03
2022-12-04T02:20:37.036Z,53.45
2022-12-04T02:23:48.129Z,58.33
2022-12-04T02:26:25.708Z,59.33
2022-12-04T02:29:09.727Z,61.67
2022-12-04T02:31:50.983Z,61.45
2022-12-04T02:34:43.941Z,52.70
2022-12-04T02:37:24.265Z,53.15
2022-12-04T02:40:14.740Z,53.70
2022-12-04T02:43:00.052Z,57.00
2022-12-04T02:45:38.078Z,56.03
2022-12-04T02:48:13.360Z,52.35
2022-12-04T02:50:47.000Z,59.08
2022-12-04T02:53:24.652Z,54.95
2022-12-04T02:56:03.451Z,55.95
2022-12-04T02:58:41.830Z,54.45
2022-12-04T03:01:24.209Z,56.45
2022-12-04T03:04:27.264Z,53.28
2022-12-04T03:07:10.729Z,59.25
2022-12-04T03:09:47.643Z,54.10
2022-12-04T03:12:43.591Z,51.85
2022-12-04T03:15:26.002Z,53.67
2022-12-04T03:18:16.528Z,55.90
2022-12-04T03:20:54.169Z,53.47
2022-12-04T03:23:36.032Z,55.92
2022-12-04T03:26:16.869Z,52.05
2022-12-04T03:29:32.205Z,54.53
2022-12-04T03:32:13.441Z,54.17
2022-12-04T03:35:04.119Z,49.50
2022-12-04T03:37:49.524Z,50.90
2022-12-04T03:40:41.864Z,51.05
2022-12-04T03:43:45.364Z,54.78
2022-12-04T03:46:50.231Z,49.08
2022-12-04T03:49:40.136Z,51.47
2022-12-04T03:52:22.299Z,51.35
2022-12-04T03:55:05.377Z,54.15
2022-12-04T03:57:44.148Z,53.95
2022-12-04T04:00:21.463Z,48.33
2022-12-04T04:03:07.521Z,50.85
2022-12-04T04:05:45.022Z,50.35
2022-12-04T04:08:26.787Z,51.63
2022-12-04T04:11:21.429Z,51.47
2022-12-04T04:14:20.977Z,52.00
2022-12-04T04:17:17.985Z,51.60
2022-12-04T04:20:22.124Z,53.45
2022-12-04T04:23:16.820Z,54.00
2022-12-04T04:25:56.836Z,51.83
2022-12-04T04:28:37.958Z,51.05
2022-12-04T04:31:31.091Z,50.72
2022-12-04T04:34:32.618Z,50.17
2022-12-04T04:37:10.222Z,50.22
2022-12-04T04:39:55.647Z,46.67
2022-12-04T04:42:40.808Z,48.42
2022-12-04T04:45:45.315Z,55.55
2022-12-04T04:48:23.589Z,51.30
2022-12-04T04:51:00.123Z,48.67
2022-12-04T04:53:45.808Z,47.33
2022-12-04T04:56:20.515Z,47.63
2022-12-04T04:58:55.135Z,45.17
2022-12-04T05:01:28.687Z,48.38
2022-12-04T05:04:01.256Z,53.85
2022-12-04T05:06:35.979Z,50.53
2022-12-04T05:11:39.394Z,46.42
2022-12-04T05:14:13.771Z,50.20
2022-12-04T05:16:45.441Z,43.65
2022-12-04T05:19:38.876Z,39.92
2022-12-04T05:22:10.494Z,45.05
2022-12-04T05:24:42.043Z,44.85
2022-12-04T05:27:14.110Z,44.58
2022-12-04T05:29:46.150Z,43.33
2022-12-04T05:32:17.816Z,45.42
2022-12-04T05:34:51.019Z,47.10
2022-12-04T05:37:23.457Z,43.38
2022-12-04T05:42:29.222Z,47.22
2022-12-04T05:45:00.823Z,44.70
2022-12-04T05:47:44.686Z,47.95
2022-12-04T05:50:16.451Z,46.58
2022-12-04T05:52:50.941Z,43.45
2022-12-04T05:55:22.616Z,49.22
2022-12-04T05:57:54.203Z,48.03
2022-12-04T06:00:26.423Z,43.63
2022-12-04T06:02:58.441Z,46.85
2022-12-04T06:05:32.591Z,45.85
2022-12-04T06:08:04.383Z,48.43
2022-12-04T06:10:36.008Z,42.58
2022-12-04T06:13:08.071Z,46.00
2022-12-04T06:15:42.674Z,47.58
2022-12-04T06:18:14.382Z,45.03
2022-12-04T06:20:46.148Z,40.80
2022-12-04T06:23:20.911Z,43.15
2022-12-04T06:28:23.884Z,43.70
2022-12-04T06:30:55.453Z,40.42
2022-12-04T06:33:27.073Z,42.22
2022-12-04T06:36:08.660Z,49.25
2022-12-04T06:38:40.927Z,43.42
2022-12-04T06:41:14.735Z,43.80
2022-12-04T06:43:46.548Z,44.90
2022-12-04T06:46:22.242Z,43.10
2022-12-04T06:48:55.613Z,46.63
2022-12-04T06:51:29.962Z,41.88
2022-12-04T06:54:02.629Z,40.65
2022-12-04T06:56:34.482Z,42.15
2022-12-04T06:59:06.118Z,40.50
2022-12-04T07:01:37.811Z,43.50
2022-12-04T07:04:09.615Z,41.80
2022-12-04T07:06:44.392Z,42.65
2022-12-04T07:09:17.924Z,42.97
2022-12-04T07:11:49.539Z,38.13
2022-12-04T07:14:21.158Z,41.88
2022-12-04T07:16:52.814Z,41.42
2022-12-04T07:19:24.438Z,44.85
2022-12-04T07:21:58.004Z,40.90
2022-12-04T07:24:29.684Z,39.95
2022-12-04T07:27:01.676Z,46.03
2022-12-04T07:29:33.296Z,42.28
2022-12-04T07:32:05.269Z,37.80
2022-12-04T07:34:37.316Z,38.00
2022-12-04T07:37:12.275Z,40.05
2022-12-04T07:39:43.931Z,37.83
2022-12-04T07:42:21.008Z,41.33
2022-12-04T07:44:55.513Z,37.53
2022-12-04T07:47:27.129Z,41.67
2022-12-04T07:49:58.859Z,37.88
2022-12-04T07:52:30.971Z,37.17
2022-12-04T07:55:02.674Z,33.67
2022-12-04T07:57:34.371Z,42.10
2022-12-04T08:00:06.716Z,42.28
2022-12-04T08:02:43.424Z,37.42
2022-12-04T08:05:15.029Z,38.90
2022-12-04T08:07:46.623Z,38.75
2022-12-04T08:10:18.296Z,35.90
2022-12-04T08:12:49.955Z,38.17
2022-12-04T08:15:21.557Z,37.88
2022-12-04T08:17:55.142Z,38.83
2022-12-04T08:20:26.695Z,39.20
2022-12-04T08:22:58.245Z,42.03
2022-12-04T08:25:29.879Z,36.53
2022-12-04T08:28:01.474Z,40.25
2022-12-04T08:30:36.499Z,39.58
2022-12-04T08:33:08.117Z,41.20
2022-12-04T08:35:39.678Z,38.33
2022-12-04T08:38:11.274Z,42.85
2022-12-04T08:40:42.884Z,38.28
2022-12-04T08:43:14.462Z,42.60
2022-12-04T08:45:55.261Z,37.28
2022-12-04T08:48:28.066Z,40.35
2022-12-04T08:51:00.221Z,45.80
2022-12-04T08:53:32.409Z,42.78
2022-12-04T08:56:04.401Z,39.58
2022-12-04T08:58:36.386Z,42.80
2022-12-04T09:01:10.623Z,39.10
2022-12-04T09:03:43.027Z,43.95
2022-12-04T09:06:16.097Z,44.75
2022-12-04T09:08:48.071Z,43.80
2022-12-04T09:11:22.043Z,41.38
2022-12-04T09:13:54.070Z,41.25
2022-12-04T09:16:26.356Z,41.88
2022-12-04T09:18:59.067Z,44.55
2022-12-04T09:21:30.731Z,41.05
2022-12-04T09:24:02.385Z,46.83
2022-12-04T09:26:33.986Z,45.00
2022-12-04T09:29:05.897Z,43.78
2022-12-04T09:31:37.961Z,43.90
2022-12-04T09:34:09.625Z,42.90
2022-12-04T09:36:41.178Z,46.42
2022-12-04T09:39:12.785Z,45.70
2022-12-04T09:41:54.837Z,43.80
2022-12-04T09:44:26.361Z,42.70
2022-12-04T09:47:04.809Z,44.03
2022-12-04T09:49:49.876Z,45.05
2022-12-04T09:52:26.018Z,42.00
2022-12-04T09:55:00.163Z,42.75
2022-12-04T09:57:38.964Z,42.65
2022-12-04T10:00:14.983Z,42.35
2022-12-04T10:02:53.583Z,41.92
2022-12-04T10:05:54.166Z,42.42
2022-12-04T10:08:34.672Z,42.22
2022-12-04T10:11:46.331Z,40.63
2022-12-04T10:14:46.168Z,40.35
2022-12-04T10:17:26.525Z,43.33
2022-12-04T10:20:04.442Z,44.33
2022-12-04T10:22:43.750Z,45.50
2022-12-04T10:25:22.522Z,46.08
2022-12-04T10:27:57.894Z,39.83
2022-12-04T10:30:32.355Z,46.42
2022-12-04T10:33:20.601Z,48.60
2022-12-04T10:35:54.280Z,48.17
2022-12-04T10:38:40.536Z,46.13
2022-12-04T10:41:25.948Z,43.15
2022-12-04T10:43:57.573Z,42.45
2022-12-04T10:46:33.442Z,41.70
2022-12-04T10:49:16.046Z,41.08
2022-12-04T10:51:47.979Z,43.90
2022-12-04T10:54:31.089Z,44.38
2022-12-04T10:57:08.524Z,40.90
2022-12-04T10:59:55.458Z,41.53
2022-12-04T11:02:33.933Z,39.45
2022-12-04T11:05:22.441Z,40.33
2022-12-04T11:07:55.137Z,34.88
2022-12-04T11:10:39.482Z,41.40
2022-12-04T11:13:11.062Z,41.03
2022-12-04T11:15:54.814Z,40.30
2022-12-04T11:18:32.389Z,40.88
2022-12-04T11:21:15.588Z,39.95
2022-12-04T11:23:52.176Z,40.72
2022-12-04T11:26:42.169Z,39.25
2022-12-04T11:29:17.392Z,39.97
2022-12-04T11:31:52.982Z,39.08
2022-12-04T11:34:34.305Z,36.92
2022-12-04T11:37:17.113Z,39.80
2022-12-04T11:39:49.909Z,38.75
2022-12-04T11:42:30.370Z,37.97
2022-12-04T11:45:20.958Z,43.55
2022-12-04T11:48:03.162Z,38.97
2022-12-04T11:50:45.586Z,38.65
2022-12-04T11:53:42.722Z,38.83
2022-12-04T11:56:14.288Z,37.83
2022-12-04T11:58:57.976Z,37.70
2022-12-04T12:02:10.351Z,39.22
2022-12-04T12:04:47.409Z,41.90
2022-12-04T12:07:40.958Z,36.92
2022-12-04T12:10:35.522Z,39.50
2022-12-04T12:13:50.146Z,36.30
2022-12-04T12:16:42.628Z,40.92
2022-12-04T12:19:36.577Z,37.57
2022-12-04T12:22:27.360Z,38.40
2022-12-04T12:25:13.445Z,36.40
2022-12-04T12:28:13.319Z,39.65
2022-12-04T12:31:22.598Z,38.92
2022-12-04T12:34:32.218Z,37.88
2022-12-04T12:37:19.030Z,39.45
2022-12-04T12:39:59.721Z,38.33
2022-12-04T12:42:38.793Z,40.72
2022-12-04T12:45:16.178Z,44.13
2022-12-04T12:47:52.229Z,42.50
2022-12-04T12:50:42.649Z,41.05
2022-12-04T12:53:22.495Z,37.95
2022-12-04T12:55:58.163Z,44.60
2022-12-04T12:58:36.484Z,43.75
2022-12-04T13:01:19.814Z,43.17
2022-12-04T13:04:02.902Z,46.35
2022-12-04T13:06:39.064Z,43.83
2022-12-04T13:09:25.779Z,42.28
2022-12-04T13:12:03.354Z,41.67
2022-12-04T13:14:35.279Z,45.55
2022-12-04T13:17:31.880Z,40.38
2022-12-04T13:20:10.497Z,42.53
2022-12-04T13:22:57.528Z,38.90
2022-12-04T13:26:01.607Z,38.55
2022-12-04T13:28:58.313Z,44.25
2022-12-04T13:31:51.251Z,39.42
2022-12-04T13:34:28.888Z,38.97
2022-12-04T13:37:00.403Z,40.13
2022-12-04T13:40:09.184Z,35.17
2022-12-04T13:42:42.300Z,40.95
2022-12-04T13:45:35.028Z,38.33
2022-12-04T13:48:09.858Z,37.50
2022-12-04T13:53:34.009Z,38.28
2022-12-04T13:56:10.317Z,37.63
2022-12-04T13:58:43.966Z,37.63
2022-12-04T14:01:31.142Z,36.58
2022-12-04T14:04:04.864Z,36.47
2022-12-04T14:06:43.686Z,37.10
2022-12-04T14:09:28.544Z,32.47
2022-12-04T14:12:04.028Z,35.25
2022-12-04T14:14:45.481Z,36.03
2022-12-04T14:17:32.078Z,37.28
2022-12-04T14:20:28.837Z,35.55
2022-12-04T14:23:33.713Z,35.70
2022-12-04T14:26:05.869Z,34.77
2022-12-04T14:28:42.847Z,32.45
2022-12-04T14:31:37.569Z,32.90
2022-12-04T14:34:23.806Z,39.55
2022-12-04T14:36:57.800Z,35.38
2022-12-04T14:39:43.559Z,35.95
2022-12-04T14:42:18.052Z,36.10
2022-12-04T14:44:57.133Z,41.50
2022-12-04T14:47:34.782Z,38.03
2022-12-04T14:50:15.236Z,39.03
2022-12-04T14:53:05.366Z,37.15
2022-12-04T14:55:51.163Z,34.67
2022-12-04T14:58:29.921Z,34.88
2022-12-04T15:01:26.895Z,33.03
2022-12-04T15:04:10.420Z,34.17
2022-12-04T15:06:44.695Z,36.05
2022-12-04T15:09:41.395Z,33.40
2022-12-04T15:12:37.043Z,36.28
2022-12-04T15:15:22.086Z,33.20
2022-12-04T15:20:41.159Z,33.00
2022-12-04T15:23:18.867Z,33.47
2022-12-04T15:25:53.293Z,34.88
2022-12-04T15:29:00.006Z,32.92
2022-12-04T15:31:40.773Z,34.08
2022-12-04T15:34:22.330Z,33.22
2022-12-04T15:36:57.774Z,33.17
2022-12-04T15:39:32.292Z,33.83
2022-12-04T15:42:20.182Z,35.17
2022-12-04T15:45:01.018Z,34.97
2022-12-04T15:47:38.681Z,34.40
2022-12-04T15:50:13.286Z,33.83
2022-12-04T15:53:12.583Z,36.90
2022-12-04T15:56:17.105Z,33.42
2022-12-04T15:58:55.691Z,35.25
2022-12-04T16:01:37.149Z,33.55
2022-12-04T16:04:20.694Z,36.30
2022-12-04T16:06:53.800Z,35.60
2022-12-04T16:09:27.243Z,34.67
2022-12-04T16:12:03.265Z,32.17
2022-12-04T16:14:34.891Z,35.72
2022-12-04T16:17:08.197Z,32.47
2022-12-04T16:19:42.023Z,34.63
2022-12-04T16:22:20.821Z,34.40
2022-12-04T16:24:54.491Z,33.63
2022-12-04T16:27:26.569Z,33.95
2022-12-04T16:29:58.301Z,35.58
2022-12-04T16:32:32.425Z,31.55
2022-12-04T16:35:04.231Z,32.28
2022-12-04T16:37:35.787Z,33.72
2022-12-04T16:40:09.117Z,34.08
2022-12-04T16:42:42.178Z,32.90
2022-12-04T16:45:29.727Z,35.30
2022-12-04T16:48:01.463Z,33.08
2022-12-04T16:50:33.161Z,35.05
2022-12-04T16:53:04.888Z,34.00
2022-12-04T16:55:39.100Z,35.90
2022-12-04T16:58:10.708Z,33.88
2022-12-04T17:00:44.777Z,34.72
2022-12-04T17:03:21.858Z,27.67
2022-12-04T17:05:53.870Z,33.25
2022-12-04T17:08:28.790Z,34.42
2022-12-04T17:11:00.378Z,30.40
2022-12-04T17:13:32.032Z,29.50
2022-12-04T17:16:03.746Z,29.08
2022-12-04T17:18:36.413Z,28.65
2022-12-04T17:21:09.649Z,32.53
2022-12-04T17:23:41.567Z,29.27
2022-12-04T17:26:14.974Z,30.02
2022-12-04T17:28:49.851Z,29.10
2022-12-04T17:31:24.741Z,29.80
2022-12-04T17:33:57.023Z,30.00
2022-12-04T17:36:28.785Z,29.73
2022-12-04T17:39:03.745Z,27.90
2022-12-04T17:41:35.449Z,29.23
2022-12-04T17:44:07.170Z,30.40
2022-12-04T17:46:38.814Z,29.98
2022-12-04T17:49:10.641Z,28.08
2022-12-04T17:51:42.428Z,26.20
2022-12-04T17:54:17.064Z,27.35
2022-12-04T17:56:53.396Z,27.05
2022-12-04T17:59:28.335Z,27.65
2022-12-04T18:02:00.047Z,25.90
2022-12-04T18:04:31.645Z,26.02
2022-12-04T18:07:03.691Z,25.27
2022-12-04T18:09:35.556Z,25.45
2022-12-04T18:12:07.327Z,27.42
2022-12-04T18:14:41.350Z,24.13
2022-12-04T18:17:12.927Z,24.65
2022-12-04T18:19:44.498Z,24.45
2022-12-04T18:22:16.162Z,26.50
2022-12-04T18:24:47.964Z,27.40
2022-12-04T18:27:19.584Z,23.83
2022-12-04T18:29:51.235Z,24.08
2022-12-04T18:32:23.271Z,24.33
2022-12-04T18:34:54.858Z,23.65
2022-12-04T18:37:26.516Z,22.83
2022-12-04T18:40:01.105Z,22.98
2022-12-04T18:42:36.372Z,26.20
2022-12-04T18:45:08.648Z,26.27
2022-12-04T18:47:40.313Z,24.92
2022-12-04T18:50:14.840Z,25.08
2022-12-04T18:52:49.195Z,24.58
2022-12-04T18:55:24.699Z,23.65
2022-12-04T18:57:56.356Z,25.58
2022-12-04T19:00:27.975Z,21.73
2022-12-04T19:03:04.654Z,26.25
2022-12-04T19:05:46.906Z,24.25
2022-12-04T19:08:18.691Z,26.17
2022-12-04T19:10:50.406Z,25.38
2022-12-04T19:13:22.054Z,25.13
2022-12-04T19:15:53.645Z,25.77
2022-12-04T19:18:25.361Z,24.10
2022-12-04T19:20:57.430Z,26.88
2022-12-04T19:23:29.125Z,25.33
2022-12-04T19:26:02.504Z,24.85
2022-12-04T19:28:34.180Z,24.73
2022-12-04T19:31:17.596Z,24.58
2022-12-04T19:33:49.638Z,27.27
2022-12-04T19:36:21.462Z,26.25
2022-12-04T19:38:55.961Z,27.75
2022-12-04T19:41:34.401Z,30.08
2022-12-04T19:44:26.302Z,28.70
2022-12-04T19:46:57.718Z,25.98
2022-12-04T19:49:29.418Z,29.73
2022-12-04T19:52:01.080Z,28.67
2022-12-04T19:54:32.909Z,25.75
2022-12-04T19:57:04.545Z,29.70
2022-12-04T19:59:39.533Z,28.58
2022-12-04T20:02:14.415Z,27.52
2022-12-04T20:04:46.111Z,30.38
2022-12-04T20:07:19.734Z,29.83
2022-12-04T20:09:53.682Z,29.17
2022-12-04T20:12:25.261Z,30.33
2022-12-04T20:14:57.500Z,26.52
2022-12-04T20:17:29.164Z,30.20
2022-12-04T20:20:01.022Z,29.15
2022-12-04T20:22:32.598Z,28.23
2022-12-04T20:25:04.455Z,25.48
2022-12-04T20:27:36.543Z,27.30
2022-12-04T20:30:08.868Z,30.42
2022-12-04T20:32:41.637Z,27.75
2022-12-04T20:35:13.362Z,25.55
2022-12-04T20:37:44.960Z,28.70
2022-12-04T20:40:16.717Z,23.83
2022-12-04T20:42:48.311Z,26.27
2022-12-04T20:45:20.437Z,27.35
2022-12-04T20:47:52.114Z,24.63
2022-12-04T20:50:24.400Z,26.83
2022-12-04T20:52:56.012Z,25.17
2022-12-04T20:55:27.614Z,29.75
2022-12-04T20:57:59.644Z,27.95
2022-12-04T21:00:31.977Z,24.42
2022-12-04T21:03:03.740Z,23.50
2022-12-04T21:05:35.374Z,24.65
2022-12-04T21:08:08.399Z,25.95
2022-12-04T21:10:40.072Z,27.50
2022-12-04T21:13:30.222Z,24.60
2022-12-04T21:16:01.932Z,27.73
2022-12-04T21:18:35.998Z,25.48
2022-12-04T21:21:07.665Z,25.73
2022-12-04T21:23:39.258Z,26.05
2022-12-04T21:26:10.826Z,26.52
2022-12-04T21:28:43.033Z,26.17
2022-12-04T21:31:14.971Z,26.60
2022-12-04T21:33:46.655Z,26.08
2022-12-04T21:36:18.569Z,25.60
2022-12-04T21:38:50.169Z,27.45
2022-12-04T21:41:41.214Z,24.92
2022-12-04T21:44:16.973Z,26.05
2022-12-04T21:46:49.629Z,26.45
2022-12-04T21:49:21.325Z,23.08
2022-12-04T21:51:57.777Z,25.65
2022-12-04T21:54:30.292Z,22.15
2022-12-04T21:57:04.015Z,20.85
2022-12-04T21:59:35.662Z,25.85
2022-12-04T22:02:07.634Z,27.73
2022-12-04T22:04:39.507Z,28.48
2022-12-04T22:07:11.662Z,27.23
2022-12-04T22:09:43.321Z,28.60
2022-12-04T22:12:41.325Z,27.58
2022-12-04T22:15:07.200Z,26.85
2022-12-04T22:17:38.902Z,24.55
2022-12-04T22:20:10.702Z,26.00
2022-12-04T22:22:42.332Z,26.23
2022-12-04T22:25:14.688Z,24.55
2022-12-04T22:27:46.276Z,21.85
2022-12-04T22:30:18.209Z,25.80
2022-12-04T22:32:50.035Z,22.20
2022-12-04T22:35:21.641Z,23.80
2022-12-04T22:40:27.758Z,23.55
2022-12-04T22:42:59.391Z,23.40
2022-12-04T22:45:30.996Z,21.98
2022-12-04T22:48:03.692Z,22.42
2022-12-04T22:50:35.315Z,22.92
2022-12-04T22:53:06.909Z,22.13
2022-12-04T22:55:38.462Z,22.98
2022-12-04T22:58:10.065Z,23.35
2022-12-04T23:00:41.918Z,25.08
2022-12-04T23:03:14.227Z,22.98
2022-12-04T23:05:45.833Z,24.02
2022-12-04T23:08:17.720Z,23.63
2022-12-04T23:10:49.300Z,24.90
2022-12-04T23:13:21.129Z,26.65
2022-12-04T23:15:52.788Z,28.08
2022-12-04T23:18:24.593Z,24.05
2022-12-04T23:21:10.659Z,25.83
2022-12-04T23:23:44.072Z,26.02
2022-12-04T23:26:19.108Z,26.42
2022-12-04T23:28:51.143Z,24.42
2022-12-04T23:31:23.050Z,24.30
2022-12-04T23:33:54.785Z,24.80
2022-12-04T23:36:26.671Z,27.38
2022-12-04T23:38:58.500Z,26.10
2022-12-04T23:41:33.598Z,25.02
2022-12-04T23:44:05.388Z,24.08
2022-12-04T23:46:37.076Z,23.83
2022-12-04T23:49:08.692Z,26.15
2022-12-04T23:51:40.334Z,25.25
2022-12-04T23:54:11.929Z,26.60
2022-12-04T23:56:44.151Z,26.52
2022-12-04T23:59:18.848Z,23.52
